Time;durP1;ratioP1;P1;durP2;ratioP2;P2;SDS_P1;SDS_P2;PMS_P1;PMS_P2;Temp;Humidity;BMP_temperature;BMP_pressure;BME280_temperature;BME280_humidity;BME280_pressure;Samples;Min_cycle;Max_cycle;Signal;HPM_P1;HPM_P2
2021/12/18 00:02:06;;;;;;;1.03;0.97;;;0.60;99.90;;;;;;5037935;28;20184;-54
2021/12/18 00:04:32;;;;;;;0.33;0.27;;;0.60;99.90;;;;;;5038005;28;20210;-54
2021/12/18 00:06:58;;;;;;;0.33;0.33;;;0.60;99.90;;;;;;5037990;28;20547;-55
2021/12/18 00:09:30;;;;;;;0.47;0.47;;;0.60;99.90;;;;;;5038239;28;20223;-56
2021/12/18 00:11:57;;;;;;;0.20;0.20;;;0.60;99.90;;;;;;5037740;28;20196;-53
2021/12/18 00:14:23;;;;;;;0.10;0.10;;;0.60;99.90;;;;;;5019886;28;20260;-55
2021/12/18 00:16:49;;;;;;;0.20;0.20;;;0.60;99.90;;;;;;5037606;28;20542;-58
2021/12/18 00:19:15;;;;;;;0.20;0.20;;;0.60;99.90;;;;;;5037808;28;20194;-57
2021/12/18 00:21:41;;;;;;;0.40;0.30;;;0.60;99.90;;;;;;5038047;28;20183;-56
2021/12/18 00:24:08;;;;;;;0.50;0.50;;;0.60;99.90;;;;;;5037974;28;20476;-57
2021/12/18 00:26:34;;;;;;;0.30;0.30;;;0.60;99.90;;;;;;5037920;28;20193;-55
2021/12/18 00:29:01;;;;;;;0.30;0.30;;;0.60;99.90;;;;;;5036624;28;20233;-54
2021/12/18 00:31:27;;;;;;;1.40;0.83;;;0.60;99.90;;;;;;5018608;28;20186;-56
2021/12/18 00:33:53;;;;;;;1.83;1.07;;;0.60;99.90;;;;;;5017883;28;20194;-57
2021/12/18 00:36:19;;;;;;;0.50;0.50;;;0.70;99.90;;;;;;5018229;28;20187;-53
2021/12/18 00:38:44;;;;;;;0.20;0.20;;;0.70;99.90;;;;;;5000529;28;20189;-67
2021/12/18 00:41:15;;;;;;;0.03;0.03;;;0.70;99.90;;;;;;5018090;28;20201;-56
2021/12/18 00:46:27;;;;;;;0.20;0.20;;;0.70;99.90;;;;;;5015387;28;20181;-54
2021/12/18 00:48:53;;;;;;;2.00;0.73;;;0.70;99.90;;;;;;5014416;28;20218;-55
2021/12/18 00:51:19;;;;;;;0.10;0.10;;;0.70;99.90;;;;;;5015198;28;20236;-55
2021/12/18 00:53:45;;;;;;;0.83;0.83;;;0.70;99.90;;;;;;5014871;28;20192;-68
2021/12/18 00:56:11;;;;;;;0.10;0.10;;;0.70;99.90;;;;;;5014489;28;20626;-52
2021/12/18 00:58:37;;;;;;;1.10;0.73;;;0.70;99.90;;;;;;4996891;28;20231;-55
2021/12/18 01:01:07;;;;;;;0.50;0.50;;;0.70;99.90;;;;;;5014368;28;20218;-55
2021/12/18 01:03:34;;;;;;;0.20;0.20;;;0.70;99.90;;;;;;5014633;28;20215;-52
2021/12/18 01:06:00;;;;;;;0.00;0.00;;;0.70;99.90;;;;;;4980812;28;20244;-55
2021/12/18 01:08:26;;;;;;;0.23;0.23;;;0.60;99.90;;;;;;5014702;28;20205;-57
2021/12/18 01:13:46;;;;;;;0.40;0.40;;;0.60;99.90;;;;;;4999400;28;20268;-55
2021/12/18 01:16:19;;;;;;;0.00;0.00;;;0.60;99.90;;;;;;4998810;28;20236;-56
2021/12/18 01:24:13;;;;;;;0.00;0.00;;;0.60;99.90;;;;;;5034002;28;20200;-55
2021/12/18 01:26:39;;;;;;;0.17;0.17;;;0.60;99.90;;;;;;5033961;28;20558;-55
2021/12/18 01:29:05;;;;;;;0.63;0.47;;;0.60;99.90;;;;;;5032764;28;20208;-56
2021/12/18 01:31:31;;;;;;;0.23;0.23;;;0.60;99.90;;;;;;5034118;28;20185;-56
2021/12/18 01:33:57;;;;;;;1.47;1.37;;;0.60;99.90;;;;;;5033719;28;20188;-58
2021/12/18 01:36:23;;;;;;;0.90;0.90;;;0.60;99.90;;;;;;5016260;28;20188;-56
2021/12/18 01:38:48;;;;;;;0.40;0.40;;;0.60;99.90;;;;;;5033574;28;20201;-64
2021/12/18 01:41:15;;;;;;;0.57;0.57;;;0.60;99.90;;;;;;5034177;28;20185;-55
2021/12/18 01:52:02;;;;;;;0.40;0.40;;;0.60;99.90;;;;;;5018470;28;20191;-56
2021/12/18 01:54:28;;;;;;;1.33;0.97;;;0.60;99.90;;;;;;5033360;28;20668;-55
2021/12/18 01:56:54;;;;;;;0.10;0.10;;;0.60;99.90;;;;;;5033013;28;20618;-54
2021/12/18 01:59:47;;;;;;;0.13;0.13;;;0.60;99.90;;;;;;5033199;28;20185;-56
2021/12/18 02:02:12;;;;;;;0.10;0.10;;;0.60;99.90;;;;;;5033368;28;20163;-52
2021/12/18 02:04:40;;;;;;;0.20;0.20;;;0.60;99.90;;;;;;5033550;28;20601;-57
2021/12/18 02:07:07;;;;;;;0.87;0.87;;;0.70;99.90;;;;;;5032962;28;20185;-56
2021/12/18 02:10:01;;;;;;;0.10;0.10;;;0.70;99.90;;;;;;5033197;28;20239;-57
2021/12/18 02:12:29;;;;;;;0.00;0.00;;;0.70;99.90;;;;;;5031906;28;20182;-55
2021/12/18 02:20:44;;;;;;;0.10;0.10;;;0.70;99.90;;;;;;5033263;28;20284;-54
2021/12/18 02:23:10;;;;;;;1.03;1.03;;;0.70;99.90;;;;;;5032809;28;20194;-57
2021/12/18 02:25:37;;;;;;;0.63;0.63;;;0.70;99.90;;;;;;5033071;28;20191;-55
2021/12/18 02:28:08;;;;;;;0.30;0.30;;;0.70;99.90;;;;;;5032701;28;20275;-56
2021/12/18 02:30:34;;;;;;;0.80;0.37;;;0.70;99.90;;;;;;5032297;28;20854;-56
2021/12/18 02:33:00;;;;;;;1.37;1.37;;;0.70;99.90;;;;;;5032483;28;20640;-57
2021/12/18 02:35:29;;;;;;;0.10;0.10;;;0.70;99.90;;;;;;5032697;28;20213;-55
2021/12/18 02:38:08;;;;;;;0.00;0.00;;;0.70;99.90;;;;;;5032690;28;20187;-59
2021/12/18 02:40:59;;;;;;;0.00;0.00;;;0.70;99.90;;;;;;5032854;28;20695;-56
2021/12/18 02:43:31;;;;;;;0.10;0.10;;;0.70;99.90;;;;;;5032694;28;20210;-58
2021/12/18 02:46:00;;;;;;;0.73;0.73;;;0.70;99.90;;;;;;5031977;28;20181;-57
2021/12/18 02:48:28;;;;;;;2.00;1.90;;;0.70;99.90;;;;;;5032890;28;20186;-55
2021/12/18 02:50:56;;;;;;;0.30;0.30;;;0.70;99.90;;;;;;5032349;28;20185;-55
2021/12/18 02:53:21;;;;;;;4.03;1.47;;;0.70;99.90;;;;;;5014562;28;20252;-56
2021/12/18 02:55:57;;;;;;;0.20;0.20;;;0.70;99.90;;;;;;5032578;28;20181;-55
2021/12/18 02:58:23;;;;;;;0.57;0.57;;;0.70;99.90;;;;;;5032487;28;20231;-56
2021/12/18 03:00:50;;;;;;;0.30;0.30;;;0.70;99.90;;;;;;5032304;28;20172;-54
2021/12/18 03:03:17;;;;;;;0.37;0.37;;;0.70;99.90;;;;;;5031693;28;20656;-55
2021/12/18 03:06:02;;;;;;;0.17;0.17;;;0.70;99.90;;;;;;5032263;28;20193;-54
2021/12/18 03:08:47;;;;;;;0.57;0.57;;;0.70;99.90;;;;;;5032070;28;20515;-55
2021/12/18 03:24:54;;;;;;;0.00;0.00;;;0.80;99.90;;;;;;5032484;28;20188;-51
2021/12/18 03:27:20;;;;;;;0.40;0.40;;;0.70;99.90;;;;;;5031640;28;20540;-51
2021/12/18 03:29:46;;;;;;;0.23;0.23;;;0.80;99.90;;;;;;5014043;28;20208;-58
2021/12/18 03:32:12;;;;;;;0.20;0.10;;;0.70;99.90;;;;;;5031709;28;20644;-56
2021/12/18 03:34:38;;;;;;;0.00;0.00;;;0.70;99.90;;;;;;5031751;28;20190;-56
2021/12/18 03:37:05;;;;;;;0.17;0.17;;;0.70;99.90;;;;;;5031547;28;20541;-57
2021/12/18 03:39:31;;;;;;;1.00;0.23;;;0.70;99.90;;;;;;5013757;28;20613;-55
2021/12/18 03:41:57;;;;;;;0.00;0.00;;;0.70;99.90;;;;;;5031416;28;20186;-58
2021/12/18 03:44:23;;;;;;;0.77;0.37;;;0.70;99.90;;;;;;5031785;28;20182;-55
2021/12/18 03:46:49;;;;;;;0.20;0.20;;;0.70;99.90;;;;;;5031937;28;20181;-55
2021/12/18 03:49:16;;;;;;;3.53;1.10;;;0.70;99.90;;;;;;5031242;28;20778;-55
2021/12/18 03:51:41;;;;;;;0.10;0.10;;;0.70;99.90;;;;;;5032135;28;20192;-55
2021/12/18 03:54:07;;;;;;;0.60;0.60;;;0.70;99.90;;;;;;5031486;28;20202;-56
2021/12/18 03:56:33;;;;;;;0.33;0.23;;;0.70;99.90;;;;;;5031911;28;20181;-54
2021/12/18 03:58:59;;;;;;;0.10;0.10;;;0.70;99.90;;;;;;5031344;28;20249;-54
2021/12/18 04:01:26;;;;;;;0.20;0.20;;;0.70;99.90;;;;;;5031421;28;20178;-54
2021/12/18 04:03:51;;;;;;;0.33;0.30;;;0.60;99.90;;;;;;5013736;28;20652;-54
2021/12/18 04:06:18;;;;;;;0.20;0.20;;;0.60;99.90;;;;;;5031413;28;20217;-56
2021/12/18 04:08:43;;;;;;;0.00;0.00;;;0.60;99.90;;;;;;5031242;28;20538;-54
2021/12/18 04:11:09;;;;;;;0.27;0.27;;;0.60;99.90;;;;;;5031693;28;20238;-51
2021/12/18 04:13:35;;;;;;;0.07;0.07;;;0.60;99.90;;;;;;5031684;28;20233;-53
2021/12/18 04:16:01;;;;;;;0.40;0.40;;;0.60;99.90;;;;;;5031309;28;20188;-54
2021/12/18 04:18:26;;;;;;;0.00;0.00;;;0.60;99.90;;;;;;5031409;28;20235;-53
2021/12/18 04:20:52;;;;;;;0.00;0.00;;;0.60;99.90;;;;;;5014662;28;20180;-54
2021/12/18 04:23:18;;;;;;;0.30;0.30;;;0.50;99.90;;;;;;5034859;28;20194;-56
2021/12/18 04:25:44;;;;;;;2.53;0.77;;;0.60;99.90;;;;;;5017936;28;20192;-54
2021/12/18 04:28:10;;;;;;;0.00;0.00;;;0.60;99.90;;;;;;5034796;28;20529;-56
2021/12/18 04:30:36;;;;;;;0.10;0.10;;;0.60;99.90;;;;;;5035003;28;20215;-52
2021/12/18 04:33:02;;;;;;;1.27;0.83;;;0.60;99.90;;;;;;5016718;28;20571;-54
2021/12/18 04:35:28;;;;;;;0.00;0.00;;;0.50;99.90;;;;;;5034897;28;20185;-53
2021/12/18 04:37:55;;;;;;;0.40;0.40;;;0.50;99.90;;;;;;5034977;28;20180;-54
2021/12/18 04:40:26;;;;;;;0.57;0.53;;;0.60;99.90;;;;;;5034758;28;20192;-55
2021/12/18 04:42:53;;;;;;;0.00;0.00;;;0.50;99.90;;;;;;5034842;28;20583;-55
2021/12/18 04:45:19;;;;;;;0.37;0.37;;;0.50;99.90;;;;;;5034774;28;20170;-56
2021/12/18 04:47:45;;;;;;;0.00;0.00;;;0.50;99.90;;;;;;5016896;28;20273;-55
2021/12/18 04:50:11;;;;;;;0.07;0.07;;;0.50;99.90;;;;;;5034389;28;20300;-56
2021/12/18 04:52:37;;;;;;;0.53;0.53;;;0.60;99.90;;;;;;5034715;28;20263;-56
2021/12/18 04:55:05;;;;;;;0.20;0.20;;;0.60;99.90;;;;;;5034443;28;20181;-53
2021/12/18 04:57:30;;;;;;;0.10;0.10;;;0.60;99.90;;;;;;5034637;28;20578;-52
2021/12/18 04:59:56;;;;;;;0.00;0.00;;;0.60;99.90;;;;;;5034601;28;20184;-52
2021/12/18 05:02:32;;;;;;;0.00;0.00;;;0.60;99.90;;;;;;5034252;28;20597;-55
2021/12/18 05:04:58;;;;;;;0.27;0.27;;;0.60;99.90;;;;;;5034631;28;20264;-55
2021/12/18 05:07:24;;;;;;;0.00;0.00;;;0.50;99.90;;;;;;5034306;28;20261;-55
2021/12/18 05:09:49;;;;;;;0.23;0.23;;;0.60;99.90;;;;;;5034504;28;20224;-54
2021/12/18 05:12:15;;;;;;;0.20;0.20;;;0.60;99.90;;;;;;5033899;28;20212;-57
2021/12/18 05:14:41;;;;;;;0.23;0.23;;;0.60;99.90;;;;;;5034328;28;20350;-55
2021/12/18 05:17:06;;;;;;;0.30;0.30;;;0.50;99.90;;;;;;5016884;28;20189;-58
2021/12/18 05:19:32;;;;;;;0.10;0.10;;;0.60;99.90;;;;;;5035250;28;20276;-56
2021/12/18 05:21:58;;;;;;;0.00;0.00;;;0.50;99.90;;;;;;5034765;28;20196;-56
2021/12/18 05:24:24;;;;;;;0.00;0.00;;;0.50;99.90;;;;;;5033937;28;20620;-56
2021/12/18 05:26:50;;;;;;;0.30;0.30;;;0.50;99.90;;;;;;5034109;28;20194;-53
2021/12/18 05:29:15;;;;;;;0.00;0.00;;;0.50;99.90;;;;;;5033583;28;20232;-57
2021/12/18 05:31:41;;;;;;;0.20;0.20;;;0.50;99.90;;;;;;5016239;28;20243;-55
2021/12/18 05:34:07;;;;;;;0.00;0.00;;;0.60;99.90;;;;;;5032504;28;20332;-54
2021/12/18 05:36:51;;;;;;;0.07;0.07;;;0.60;99.90;;;;;;5033976;28;20188;-56
2021/12/18 05:39:17;;;;;;;3.10;0.73;;;0.60;99.90;;;;;;5018187;28;20628;-58
2021/12/18 05:41:42;;;;;;;0.00;0.00;;;0.60;99.90;;;;;;5033906;28;20176;-55
2021/12/18 05:44:09;;;;;;;0.10;0.10;;;0.60;99.90;;;;;;5015279;28;20686;-56
2021/12/18 05:46:35;;;;;;;0.50;0.50;;;0.60;99.90;;;;;;5033629;28;20177;-56
2021/12/18 05:49:03;;;;;;;0.00;0.00;;;0.60;99.90;;;;;;5032986;28;20338;-56
2021/12/18 05:51:31;;;;;;;0.00;0.00;;;0.60;99.90;;;;;;5016297;28;20181;-51
2021/12/18 05:53:57;;;;;;;0.20;0.20;;;0.60;99.90;;;;;;5033653;28;20203;-55
2021/12/18 05:56:23;;;;;;;1.30;1.07;;;0.50;99.90;;;;;;5032928;28;20190;-55
2021/12/18 05:58:48;;;;;;;0.00;0.00;;;0.50;99.90;;;;;;5032910;28;20576;-56
2021/12/18 06:01:14;;;;;;;0.00;0.00;;;0.60;99.90;;;;;;5015310;28;20212;-55
2021/12/18 06:03:41;;;;;;;0.00;0.00;;;0.60;99.90;;;;;;5033314;28;20278;-53
2021/12/18 06:06:07;;;;;;;1.07;0.10;;;0.60;99.90;;;;;;5032295;28;20224;-56
2021/12/18 06:08:35;;;;;;;0.87;0.87;;;0.60;99.90;;;;;;5033053;28;20210;-56
2021/12/18 06:11:06;;;;;;;0.30;0.30;;;0.60;99.90;;;;;;5015725;28;20177;-55
2021/12/18 06:13:32;;;;;;;0.17;0.17;;;0.60;99.90;;;;;;5032876;28;20237;-56
2021/12/18 06:15:57;;;;;;;0.20;0.20;;;0.50;99.90;;;;;;5033040;28;20247;-55
2021/12/18 06:18:23;;;;;;;0.10;0.10;;;0.40;99.90;;;;;;5014799;28;20193;-53
2021/12/18 06:20:49;;;;;;;0.00;0.00;;;0.30;99.90;;;;;;5033018;28;20659;-54
2021/12/18 06:23:15;;;;;;;0.10;0.10;;;0.20;99.90;;;;;;5032442;28;20185;-55
2021/12/18 06:25:40;;;;;;;0.50;0.50;;;0.20;99.90;;;;;;5014542;28;20188;-54
2021/12/18 06:28:06;;;;;;;0.00;0.00;;;0.20;99.90;;;;;;5032613;28;20216;-54
2021/12/18 06:30:32;;;;;;;0.13;0.13;;;0.20;99.90;;;;;;5019085;28;20708;-56
2021/12/18 06:32:57;;;;;;;0.03;0.03;;;0.20;99.90;;;;;;4978805;28;20238;-56
2021/12/18 06:35:23;;;;;;;0.27;0.27;;;0.30;99.90;;;;;;5012161;28;20194;-53
2021/12/18 06:37:50;;;;;;;0.00;0.00;;;0.30;99.90;;;;;;5012934;28;20273;-54
2021/12/18 06:40:16;;;;;;;0.20;0.20;;;0.30;99.90;;;;;;5012238;28;20186;-51
2021/12/18 06:42:43;;;;;;;0.43;0.43;;;0.40;99.90;;;;;;5012227;28;20214;-52
2021/12/18 06:45:10;;;;;;;0.00;0.00;;;0.40;99.90;;;;;;5011212;28;20562;-55
2021/12/18 06:47:36;;;;;;;0.03;0.03;;;0.50;99.90;;;;;;5012345;28;20192;-54
2021/12/18 06:50:04;;;;;;;0.63;0.50;;;0.50;99.90;;;;;;5011883;28;20229;-56
2021/12/18 06:52:30;;;;;;;0.77;0.53;;;0.60;99.90;;;;;;5011965;28;20586;-57
2021/12/18 06:54:56;;;;;;;0.30;0.30;;;0.60;99.90;;;;;;5011382;28;20190;-56
2021/12/18 06:57:22;;;;;;;0.83;0.83;;;0.70;99.90;;;;;;4994036;28;20240;-55
2021/12/18 06:59:49;;;;;;;0.10;0.10;;;0.70;99.90;;;;;;5011766;28;20219;-53
2021/12/18 07:02:15;;;;;;;0.20;0.20;;;0.70;99.90;;;;;;5011814;28;20175;-55
2021/12/18 07:04:41;;;;;;;0.57;0.57;;;0.80;99.90;;;;;;5011514;28;20234;-52
2021/12/18 07:07:06;;;;;;;0.30;0.30;;;0.80;99.90;;;;;;5011526;28;20183;-54
2021/12/18 07:09:32;;;;;;;1.80;0.57;;;0.90;99.90;;;;;;5011510;28;20230;-51
2021/12/18 07:11:58;;;;;;;0.17;0.13;;;0.90;99.90;;;;;;5011629;28;20269;-53
2021/12/18 07:14:24;;;;;;;0.70;0.70;;;0.90;99.90;;;;;;4993823;28;20317;-55
2021/12/18 07:16:50;;;;;;;0.00;0.00;;;0.90;99.90;;;;;;5011704;28;20662;-52
2021/12/18 07:19:16;;;;;;;0.50;0.50;;;0.80;99.90;;;;;;4993966;28;20190;-54
2021/12/18 07:21:42;;;;;;;0.00;0.00;;;0.90;99.90;;;;;;5011650;28;20207;-54
2021/12/18 07:24:08;;;;;;;0.00;0.00;;;0.90;99.90;;;;;;4993804;28;20548;-54
2021/12/18 07:26:34;;;;;;;0.00;0.00;;;0.90;99.90;;;;;;4978319;28;20546;-53
2021/12/18 07:29:00;;;;;;;0.10;0.10;;;1.00;99.90;;;;;;5012912;28;20233;-54
2021/12/18 07:31:26;;;;;;;0.80;0.40;;;1.00;99.90;;;;;;5013481;28;20540;-54
2021/12/18 07:33:52;;;;;;;3.80;1.20;;;1.10;99.90;;;;;;5031787;28;20186;-54
2021/12/18 07:36:18;;;;;;;0.57;0.57;;;1.10;99.90;;;;;;5031235;28;20193;-60
2021/12/18 07:38:44;;;;;;;0.00;0.00;;;1.10;99.90;;;;;;5031264;28;20216;-59
2021/12/18 07:41:10;;;;;;;0.00;0.00;;;1.10;99.90;;;;;;5031148;28;20570;-60
2021/12/18 07:43:37;;;;;;;0.53;0.53;;;1.20;99.90;;;;;;5025312;28;20657;-61
2021/12/18 07:46:03;;;;;;;0.00;0.00;;;1.20;99.90;;;;;;5016967;28;20304;-62
2021/12/18 07:48:29;;;;;;;0.30;0.30;;;1.10;99.90;;;;;;5011182;28;20280;-61
2021/12/18 07:50:55;;;;;;;0.00;0.00;;;1.10;99.90;;;;;;5010691;28;20267;-59
2021/12/18 07:53:23;;;;;;;0.00;0.00;;;1.10;99.90;;;;;;5011034;28;20189;-58
2021/12/18 07:55:49;;;;;;;0.00;0.00;;;1.10;99.90;;;;;;4995135;28;20257;-59
2021/12/18 07:58:15;;;;;;;0.07;0.07;;;1.10;99.90;;;;;;4996667;28;20264;-61
2021/12/18 08:00:41;;;;;;;0.00;0.00;;;1.10;99.90;;;;;;5015209;28;20601;-63
2021/12/18 08:03:07;;;;;;;0.10;0.10;;;1.10;99.90;;;;;;4997199;28;20186;-60
2021/12/18 08:05:33;;;;;;;0.00;0.00;;;1.10;99.90;;;;;;5015051;28;20266;-60
2021/12/18 08:07:58;;;;;;;0.10;0.10;;;1.10;99.90;;;;;;5015171;28;20217;-56
2021/12/18 08:10:25;;;;;;;0.00;0.00;;;1.10;99.90;;;;;;5014877;28;20669;-59
2021/12/18 08:12:50;;;;;;;1.40;0.50;;;1.10;99.90;;;;;;5021138;28;20193;-61
2021/12/18 08:15:16;;;;;;;0.00;0.00;;;1.10;99.90;;;;;;5034111;28;20288;-55
2021/12/18 08:17:42;;;;;;;0.40;0.40;;;1.10;99.90;;;;;;5016226;28;20438;-56
2021/12/18 08:20:09;;;;;;;0.30;0.30;;;1.20;99.90;;;;;;5034462;28;20538;-54
2021/12/18 08:22:35;;;;;;;0.47;0.40;;;1.10;99.90;;;;;;5030221;28;20914;-57
2021/12/18 08:25:01;;;;;;;1.23;0.40;;;1.20;99.90;;;;;;5032733;28;20408;-59
2021/12/18 08:27:28;;;;;;;0.87;0.40;;;1.20;99.90;;;;;;5032250;28;20225;-57
2021/12/18 08:29:53;;;;;;;0.10;0.10;;;1.20;99.90;;;;;;5014977;28;20213;-58
2021/12/18 08:32:19;;;;;;;0.33;0.33;;;1.20;99.90;;;;;;5032219;28;20191;-63
2021/12/18 08:34:45;;;;;;;0.47;0.47;;;1.20;99.90;;;;;;5031443;28;20277;-65
2021/12/18 08:37:11;;;;;;;0.17;0.17;;;1.20;99.90;;;;;;5013032;28;20357;-61
2021/12/18 08:39:37;;;;;;;0.00;0.00;;;1.20;99.90;;;;;;5014809;28;20183;-57
2021/12/18 08:42:05;;;;;;;0.10;0.10;;;1.30;99.90;;;;;;5032362;28;20530;-69
2021/12/18 08:44:33;;;;;;;0.17;0.17;;;1.40;99.90;;;;;;5030308;28;20323;-60
2021/12/18 08:46:59;;;;;;;0.00;0.00;;;1.40;99.90;;;;;;5019995;28;20643;-59
2021/12/18 08:49:26;;;;;;;0.40;0.40;;;1.50;99.90;;;;;;4994587;28;20222;-62
2021/12/18 08:51:54;;;;;;;0.20;0.20;;;1.60;99.90;;;;;;5027873;28;20303;-65
2021/12/18 08:54:20;;;;;;;0.00;0.00;;;1.50;99.90;;;;;;5031632;28;20193;-63
2021/12/18 08:56:46;;;;;;;0.10;0.10;;;1.70;99.90;;;;;;5031637;28;20251;-63
2021/12/18 08:59:12;;;;;;;0.60;0.60;;;1.90;99.90;;;;;;5013721;28;20187;-61
2021/12/18 09:01:38;;;;;;;0.10;0.10;;;2.00;99.90;;;;;;5013156;28;20198;-63
2021/12/18 09:04:04;;;;;;;0.23;0.23;;;2.00;99.90;;;;;;5013954;28;20183;-70
2021/12/18 09:06:30;;;;;;;0.37;0.37;;;2.00;99.90;;;;;;5013803;28;20214;-61
2021/12/18 09:08:56;;;;;;;0.00;0.00;;;2.00;99.90;;;;;;5029868;28;20571;-59
2021/12/18 09:11:22;;;;;;;0.10;0.10;;;2.00;99.90;;;;;;5030387;28;20198;-60
2021/12/18 09:13:48;;;;;;;0.00;0.00;;;2.00;99.90;;;;;;5015546;28;20249;-61
2021/12/18 09:16:14;;;;;;;0.00;0.00;;;1.90;99.90;;;;;;5010741;28;20306;-62
2021/12/18 09:18:40;;;;;;;0.33;0.33;;;1.90;99.90;;;;;;5011374;28;20206;-61
2021/12/18 09:21:05;;;;;;;0.30;0.30;;;1.70;99.90;;;;;;5010680;28;20186;-63
2021/12/18 09:23:31;;;;;;;1.90;1.10;;;1.70;99.90;;;;;;4992864;28;20195;-61
2021/12/18 09:25:58;;;;;;;0.10;0.10;;;1.70;99.90;;;;;;5010612;28;20259;-66
2021/12/18 09:28:24;;;;;;;0.03;0.03;;;1.80;99.90;;;;;;5009387;28;20226;-66
2021/12/18 09:30:49;;;;;;;0.00;0.00;;;1.70;99.90;;;;;;5008467;28;20203;-63
2021/12/18 09:33:17;;;;;;;0.37;0.33;;;1.60;99.90;;;;;;5029903;28;20222;-61
2021/12/18 09:35:43;;;;;;;0.10;0.10;;;1.70;99.90;;;;;;5030934;28;20646;-55
2021/12/18 09:38:09;;;;;;;0.00;0.00;;;1.70;99.90;;;;;;5012273;28;20186;-61
2021/12/18 09:40:35;;;;;;;0.13;0.13;;;1.60;99.90;;;;;;5029950;28;20201;-64
2021/12/18 09:43:01;;;;;;;0.10;0.10;;;1.60;99.90;;;;;;5004174;28;20197;-63
2021/12/18 09:45:27;;;;;;;0.37;0.37;;;1.30;99.90;;;;;;5019543;28;20183;-62
2021/12/18 09:47:53;;;;;;;0.40;0.40;;;1.30;99.90;;;;;;5010206;28;20171;-59
2021/12/18 09:50:21;;;;;;;1.50;0.97;;;1.30;99.90;;;;;;5010008;28;20234;-55
2021/12/18 09:52:47;;;;;;;0.00;0.00;;;1.50;99.90;;;;;;4992830;28;20183;-63
2021/12/18 09:55:14;;;;;;;0.47;0.47;;;1.50;99.90;;;;;;5024119;28;20656;-62
2021/12/18 09:57:40;;;;;;;0.30;0.30;;;1.50;99.90;;;;;;5027533;28;20193;-60
2021/12/18 10:00:09;;;;;;;0.20;0.20;;;1.50;99.90;;;;;;5031760;28;20200;-71
2021/12/18 10:02:35;;;;;;;2.40;1.60;;;1.50;99.90;;;;;;5030886;28;20190;-60
2021/12/18 10:05:00;;;;;;;0.60;0.60;;;1.70;99.90;;;;;;5011043;28;20540;-62
2021/12/18 10:07:27;;;;;;;0.10;0.10;;;1.70;99.90;;;;;;5009662;28;20670;-66
2021/12/18 10:09:58;;;;;;;0.00;0.00;;;1.60;99.90;;;;;;5028162;28;20273;-63
2021/12/18 10:12:25;;;;;;;1.03;0.97;;;1.60;99.90;;;;;;5029883;28;20185;-58
2021/12/18 10:15:00;;;;;;;0.50;0.50;;;1.60;99.90;;;;;;5013302;28;20591;-61
2021/12/18 10:17:36;;;;;;;0.10;0.10;;;1.60;99.90;;;;;;5031098;28;20251;-65
2021/12/18 10:20:11;;;;;;;0.10;0.10;;;1.80;99.90;;;;;;5031434;28;20182;-60
2021/12/18 10:22:55;;;;;;;0.20;0.20;;;1.90;99.90;;;;;;5031623;28;20216;-63
2021/12/18 10:25:23;;;;;;;0.00;0.00;;;1.90;99.90;;;;;;5030892;28;20193;-61
2021/12/18 10:28:10;;;;;;;0.00;0.00;;;2.10;99.90;;;;;;5031304;28;20182;-61
2021/12/18 10:30:47;;;;;;;0.70;0.70;;;2.30;99.90;;;;;;5018009;28;20226;-62
2021/12/18 10:33:13;;;;;;;0.23;0.23;;;2.30;99.90;;;;;;5012015;28;20182;-65
2021/12/18 10:35:44;;;;;;;0.50;0.50;;;2.20;99.90;;;;;;5011196;28;20180;-61
2021/12/18 10:38:48;;;;;;;0.30;0.30;;;2.10;99.90;;;;;;4993394;28;20179;-67
2021/12/18 10:41:34;;;;;;;0.20;0.20;;;2.00;99.90;;;;;;4993639;28;20847;-63
2021/12/18 10:44:07;;;;;;;0.20;0.20;;;2.00;99.90;;;;;;5013908;28;20329;-62
2021/12/18 10:46:35;;;;;;;0.20;0.20;;;1.90;99.90;;;;;;5017407;28;20702;-63
2021/12/18 10:49:04;;;;;;;0.00;0.00;;;1.70;99.90;;;;;;4994626;28;20211;-61
2021/12/18 10:51:31;;;;;;;0.23;0.20;;;1.50;99.90;;;;;;5011698;28;20194;-61
2021/12/18 10:54:07;;;;;;;0.10;0.10;;;1.80;99.90;;;;;;5011946;28;20282;-61
2021/12/18 10:56:36;;;;;;;0.40;0.40;;;1.90;99.90;;;;;;5011258;28;20190;-61
2021/12/18 10:59:07;;;;;;;0.13;0.13;;;2.00;99.90;;;;;;4994626;28;20179;-62
2021/12/18 11:01:36;;;;;;;0.07;0.07;;;2.10;99.90;;;;;;5011714;28;20214;-60
2021/12/18 11:04:02;;;;;;;0.17;0.17;;;2.30;99.90;;;;;;4994518;28;20206;-62
2021/12/18 11:06:31;;;;;;;0.13;0.13;;;2.30;99.90;;;;;;4993780;28;20552;-63
2021/12/18 11:09:11;;;;;;;1.40;0.63;;;2.60;99.90;;;;;;4994185;28;20184;-62
2021/12/18 11:14:11;;;;;;;0.23;0.23;;;2.20;99.90;;;;;;5028393;28;20264;-63
2021/12/18 11:16:39;;;;;;;0.00;0.00;;;2.00;99.90;;;;;;5030063;28;20190;-60
2021/12/18 11:19:06;;;;;;;1.20;0.70;;;1.90;99.90;;;;;;5032045;28;20495;-64
2021/12/18 11:21:34;;;;;;;0.13;0.13;;;2.00;99.90;;;;;;5031653;28;20237;-61
2021/12/18 11:24:05;;;;;;;0.03;0.03;;;2.10;99.90;;;;;;5030940;28;20197;-58
2021/12/18 11:27:01;;;;;;;0.10;0.10;;;2.00;99.90;;;;;;5030791;28;20250;-63
2021/12/18 11:29:31;;;;;;;0.73;0.53;;;1.80;99.90;;;;;;5030577;28;20665;-60
2021/12/18 11:31:58;;;;;;;0.03;0.03;;;1.70;99.90;;;;;;5030057;28;20190;-59
2021/12/18 11:34:25;;;;;;;0.00;0.00;;;1.60;99.90;;;;;;5012886;28;20665;-62
2021/12/18 11:36:52;;;;;;;1.30;0.83;;;1.60;99.90;;;;;;5030799;28;20178;-59
2021/12/18 11:39:21;;;;;;;0.07;0.07;;;1.70;99.90;;;;;;5029994;28;20687;-59
2021/12/18 11:41:51;;;;;;;0.10;0.10;;;1.60;99.90;;;;;;5030454;28;20197;-59
2021/12/18 11:44:35;;;;;;;2.17;0.67;;;1.50;99.90;;;;;;5030258;28;20484;-53
2021/12/18 11:47:32;;;;;;;0.17;0.17;;;1.50;99.90;;;;;;5019538;28;20186;-59
2021/12/18 11:50:01;;;;;;;0.70;0.70;;;1.60;99.90;;;;;;5011163;28;20296;-56
2021/12/18 11:52:28;;;;;;;3.20;0.97;;;1.50;99.90;;;;;;5010790;28;20265;-59
2021/12/18 11:54:57;;;;;;;0.07;0.07;;;1.50;99.90;;;;;;5011150;28;20655;-60
2021/12/18 11:57:48;;;;;;;0.00;0.00;;;1.40;99.90;;;;;;5011119;28;20197;-63
2021/12/18 12:00:23;;;;;;;0.00;0.00;;;1.50;99.90;;;;;;5011101;28;20198;-60
2021/12/18 12:02:56;;;;;;;0.47;0.47;;;1.60;99.90;;;;;;5011520;28;20174;-57
2021/12/18 12:05:36;;;;;;;0.23;0.23;;;1.60;99.90;;;;;;4993543;28;20207;-59
2021/12/18 12:08:20;;;;;;;0.60;0.60;;;1.70;99.90;;;;;;5011668;28;20206;-60
2021/12/18 12:11:15;;;;;;;0.00;0.00;;;1.90;99.90;;;;;;4993142;28;20293;-59
2021/12/18 12:14:13;;;;;;;0.00;0.00;;;1.90;99.90;;;;;;5010802;28;20234;-62
2021/12/18 12:19:20;;;;;;;0.37;0.37;;;1.90;99.90;;;;;;5030961;28;20275;-58
2021/12/18 12:21:51;;;;;;;0.00;0.00;;;1.70;99.90;;;;;;5030461;28;20625;-51
2021/12/18 12:24:20;;;;;;;0.00;0.00;;;1.60;99.90;;;;;;5029705;28;20278;-56
2021/12/18 12:26:47;;;;;;;0.00;0.00;;;1.60;99.90;;;;;;5013149;28;20183;-60
2021/12/18 12:29:14;;;;;;;0.00;0.00;;;1.60;99.90;;;;;;5030156;28;21885;-70
2021/12/18 12:32:13;;;;;;;0.00;0.00;;;1.50;99.90;;;;;;5013165;28;20641;-59
2021/12/18 12:34:39;;;;;;;0.70;0.70;;;1.40;99.90;;;;;;4990137;28;20201;-57
2021/12/18 12:37:23;;;;;;;0.07;0.07;;;1.40;99.90;;;;;;5030742;28;20188;-58
2021/12/18 12:39:54;;;;;;;0.20;0.20;;;1.20;99.90;;;;;;5030621;28;20175;-56
2021/12/18 12:42:20;;;;;;;0.00;0.00;;;1.20;99.90;;;;;;5031134;28;20609;-57
2021/12/18 12:44:52;;;;;;;0.37;0.37;;;1.20;99.90;;;;;;5033397;28;20278;-57
2021/12/18 12:47:22;;;;;;;0.20;0.20;;;1.20;99.90;;;;;;5024671;28;20194;-59
2021/12/18 12:50:13;;;;;;;0.10;0.10;;;1.20;99.90;;;;;;5019320;28;20256;-55
2021/12/18 12:52:52;;;;;;;1.80;1.40;;;1.20;99.90;;;;;;5005990;28;20277;-58
2021/12/18 12:55:19;;;;;;;0.00;0.00;;;1.20;99.90;;;;;;5013588;28;20182;-57
2021/12/18 12:57:55;;;;;;;0.00;0.00;;;1.10;99.90;;;;;;5013631;28;20187;-56
2021/12/18 13:00:21;;;;;;;0.40;0.33;;;1.10;99.90;;;;;;5013669;28;20182;-56
2021/12/18 13:02:59;;;;;;;0.00;0.00;;;1.10;99.90;;;;;;5014384;28;20194;-53
2021/12/18 13:05:27;;;;;;;0.40;0.40;;;1.00;99.90;;;;;;5014950;28;20653;-55
2021/12/18 13:07:58;;;;;;;0.53;0.53;;;1.00;99.90;;;;;;4995956;28;20198;-58
2021/12/18 13:10:32;;;;;;;0.03;0.03;;;0.90;99.90;;;;;;5018049;28;20294;-53
2021/12/18 13:13:13;;;;;;;0.60;0.53;;;1.00;99.90;;;;;;5006446;28;20654;-59
2021/12/18 13:15:53;;;;;;;0.00;0.00;;;1.00;99.90;;;;;;5022442;28;20209;-54
2021/12/18 13:18:26;;;;;;;0.03;0.03;;;1.00;99.90;;;;;;5030306;28;20197;-57
2021/12/18 13:21:00;;;;;;;0.60;0.60;;;1.00;99.90;;;;;;5033046;28;20202;-56
2021/12/18 13:23:58;;;;;;;0.70;0.70;;;1.00;99.90;;;;;;5032419;28;20203;-61
2021/12/18 13:26:36;;;;;;;0.10;0.10;;;1.00;99.90;;;;;;5032295;28;20193;-59
2021/12/18 13:29:06;;;;;;;0.30;0.30;;;1.00;99.90;;;;;;5032695;28;20292;-58
2021/12/18 13:31:34;;;;;;;0.47;0.47;;;1.00;99.90;;;;;;5032793;28;20211;-54
2021/12/18 13:34:06;;;;;;;0.67;0.67;;;1.00;99.90;;;;;;5033027;28;20188;-54
2021/12/18 13:36:39;;;;;;;0.97;0.97;;;1.00;99.90;;;;;;5032611;28;20222;-58
2021/12/18 13:39:11;;;;;;;0.70;0.70;;;1.10;99.90;;;;;;5027941;28;20867;-55
2021/12/18 13:41:37;;;;;;;4.53;1.70;;;1.10;99.90;;;;;;5027922;28;20193;-62
2021/12/18 13:44:03;;;;;;;0.00;0.00;;;1.00;99.90;;;;;;5021570;28;20264;-59
2021/12/18 13:46:30;;;;;;;6.03;1.43;;;1.10;99.90;;;;;;5018052;28;20544;-70
2021/12/18 13:48:57;;;;;;;0.10;0.10;;;1.10;99.90;;;;;;5026905;28;20191;-59
2021/12/18 13:51:25;;;;;;;0.00;0.00;;;1.00;99.90;;;;;;5011168;28;20284;-57